Time;durP1;ratioP1;P1;durP2;ratioP2;P2;SDS_P1;SDS_P2;PMS_P1;PMS_P2;Temp;Humidity;BMP_temperature;BMP_pressure;BME280_temperature;BME280_humidity;BME280_pressure;Samples;Min_cycle;Max_cycle;Signal;HPM_P1;HPM_P2
2023/01/29 00:02:20;;;;;;;34.17;13.48;;;3.30;99.90;;;;;;5055253;28;20037;-74
2023/01/29 00:04:46;;;;;;;29.20;12.23;;;3.20;99.90;;;;;;5055223;28;20452;-74
2023/01/29 00:07:11;;;;;;;34.25;12.48;;;3.20;99.90;;;;;;5055290;28;20060;-74
2023/01/29 00:09:37;;;;;;;32.20;13.18;;;3.30;99.90;;;;;;5055105;28;20045;-75
2023/01/29 00:12:03;;;;;;;33.47;13.02;;;3.20;99.90;;;;;;5087971;28;20049;-73
2023/01/29 00:14:29;;;;;;;28.92;12.55;;;3.20;99.90;;;;;;5055769;28;20045;-75
2023/01/29 00:16:55;;;;;;;30.80;12.52;;;3.20;99.90;;;;;;5055212;28;20060;-74
2023/01/29 00:19:20;;;;;;;30.45;12.70;;;3.20;99.90;;;;;;5054949;28;20094;-75
2023/01/29 00:21:46;;;;;;;28.85;12.43;;;3.10;99.90;;;;;;5055725;28;20052;-74
2023/01/29 00:24:12;;;;;;;29.35;12.60;;;3.10;99.90;;;;;;5053704;28;20077;-75
2023/01/29 00:26:38;;;;;;;31.35;12.40;;;3.10;99.90;;;;;;5036980;28;20040;-73
2023/01/29 00:29:05;;;;;;;30.55;12.63;;;3.10;99.90;;;;;;5053204;28;20564;-74
2023/01/29 00:31:31;;;;;;;35.10;13.48;;;3.10;99.90;;;;;;5053931;28;20045;-73
2023/01/29 00:33:57;;;;;;;33.45;12.82;;;3.10;99.90;;;;;;5053813;28;20087;-74
2023/01/29 00:36:24;;;;;;;32.40;12.70;;;3.10;99.90;;;;;;5051934;28;20409;-75
2023/01/29 00:38:59;;;;;;;28.60;12.35;;;3.10;99.90;;;;;;5052154;28;20049;-75
2023/01/29 00:47:01;;;;;;;30.23;12.52;;;3.10;99.90;;;;;;5054357;28;20091;-74
2023/01/29 00:49:27;;;;;;;29.75;12.13;;;3.20;99.90;;;;;;5052391;28;20053;-75
2023/01/29 00:54:36;;;;;;;32.00;12.25;;;3.20;99.90;;;;;;5053423;28;20132;-74
2023/01/29 00:57:03;;;;;;;28.13;12.57;;;3.20;99.90;;;;;;5052231;28;20422;-73
2023/01/29 00:59:29;;;;;;;33.47;13.00;;;3.30;99.90;;;;;;5085563;28;20052;-73
2023/01/29 01:04:39;;;;;;;26.00;8.55;;;3.20;99.90;;;;;;5053569;28;20045;-74
2023/01/29 01:07:06;;;;;;;33.95;13.70;;;3.30;99.90;;;;;;5053092;28;20045;-73
2023/01/29 01:12:18;;;;;;;30.42;13.18;;;3.30;99.90;;;;;;5052002;28;20057;-74
2023/01/29 01:14:44;;;;;;;31.73;12.13;;;3.30;99.90;;;;;;5051692;28;20079;-74
2023/01/29 01:17:10;;;;;;;30.35;11.98;;;3.30;99.90;;;;;;5051508;28;20060;-74
2023/01/29 01:19:36;;;;;;;28.85;12.40;;;3.30;99.90;;;;;;5053072;28;20040;-74
2023/01/29 01:22:03;;;;;;;32.40;13.05;;;3.30;99.90;;;;;;5053786;28;20064;-74
2023/01/29 01:24:29;;;;;;;28.40;12.68;;;3.30;99.90;;;;;;5069929;28;20048;-75
2023/01/29 01:26:55;;;;;;;30.27;12.40;;;3.30;99.90;;;;;;5035952;28;20171;-73
2023/01/29 01:29:21;;;;;;;29.00;11.98;;;3.30;99.90;;;;;;5054118;28;20106;-74
2023/01/29 01:31:46;;;;;;;26.05;11.82;;;3.30;99.90;;;;;;5056691;28;20040;-74
2023/01/29 01:34:12;;;;;;;31.10;12.57;;;3.30;99.90;;;;;;5055802;28;20052;-74
2023/01/29 01:36:38;;;;;;;32.80;11.88;;;3.30;99.90;;;;;;5057717;28;20127;-73
2023/01/29 01:39:03;;;;;;;30.00;12.50;;;3.30;99.90;;;;;;5039740;28;20103;-75
2023/01/29 01:41:29;;;;;;;30.30;12.75;;;3.30;99.90;;;;;;5055786;28;20049;-73
2023/01/29 01:43:58;;;;;;;33.42;11.88;;;3.30;99.90;;;;;;5039293;28;20045;-74
2023/01/29 01:46:36;;;;;;;33.88;13.20;;;3.40;99.90;;;;;;5057052;28;20090;-74
2023/01/29 01:49:10;;;;;;;29.67;13.30;;;3.40;99.90;;;;;;5058231;28;20057;-74
2023/01/29 01:51:43;;;;;;;31.58;12.85;;;3.30;99.90;;;;;;5060720;28;20056;-73
2023/01/29 01:54:14;;;;;;;37.35;12.80;;;3.30;99.90;;;;;;5060836;28;20049;-74
2023/01/29 01:56:45;;;;;;;31.50;12.95;;;3.40;99.90;;;;;;5059403;28;20045;-74
2023/01/29 01:59:15;;;;;;;30.88;12.50;;;3.40;99.90;;;;;;5058951;28;20060;-74
2023/01/29 02:01:48;;;;;;;31.10;12.68;;;3.40;99.90;;;;;;5057304;28;20118;-73
2023/01/29 02:10:10;;;;;;;33.53;12.52;;;3.40;99.90;;;;;;5056258;28;20045;-75
2023/01/29 02:12:37;;;;;;;32.75;12.15;;;3.40;99.90;;;;;;5055093;28;20397;-74
2023/01/29 02:15:03;;;;;;;30.55;12.43;;;3.40;99.90;;;;;;5055960;28;20049;-74
2023/01/29 02:17:30;;;;;;;33.28;12.57;;;3.40;99.90;;;;;;5056026;28;20049;-74
2023/01/29 02:20:23;;;;;;;28.35;11.88;;;3.30;99.90;;;;;;5054345;28;20045;-73
2023/01/29 02:23:15;;;;;;;33.80;12.52;;;3.30;99.90;;;;;;5055374;28;20041;-73
2023/01/29 02:26:00;;;;;;;32.88;12.48;;;3.40;99.90;;;;;;5037242;28;20071;-74
2023/01/29 02:29:21;;;;;;;30.05;12.75;;;3.40;99.90;;;;;;5037782;28;20060;-75
2023/01/29 02:32:31;;;;;;;31.48;12.98;;;3.40;99.90;;;;;;5055336;28;20098;-73
2023/01/29 02:35:30;;;;;;;29.35;12.20;;;3.40;99.90;;;;;;4977551;28;20062;-75
2023/01/29 02:38:26;;;;;;;33.17;13.18;;;3.40;99.90;;;;;;4994230;28;20046;-75
2023/01/29 02:41:11;;;;;;;33.50;13.40;;;3.40;99.90;;;;;;5049183;28;20055;-74
2023/01/29 02:43:56;;;;;;;32.28;12.63;;;3.40;99.90;;;;;;5055915;28;20044;-73
2023/01/29 02:46:28;;;;;;;36.17;13.80;;;3.40;99.90;;;;;;5055533;28;20049;-74
2023/01/29 02:49:17;;;;;;;31.00;13.48;;;3.40;99.90;;;;;;5054790;28;20049;-74
2023/01/29 02:51:57;;;;;;;34.22;13.88;;;3.40;99.90;;;;;;5055169;28;20076;-74
2023/01/29 02:54:34;;;;;;;36.90;14.20;;;3.40;99.90;;;;;;5055306;28;20098;-73
2023/01/29 02:57:13;;;;;;;34.75;14.50;;;3.40;99.90;;;;;;5055540;28;20044;-74
2023/01/29 02:59:48;;;;;;;36.28;14.32;;;3.40;99.90;;;;;;5055039;28;20424;-73
2023/01/29 03:02:19;;;;;;;33.28;14.10;;;3.40;99.90;;;;;;5055486;28;20037;-73
2023/01/29 03:04:57;;;;;;;33.67;13.02;;;3.40;99.90;;;;;;5054627;28;20044;-74
2023/01/29 03:07:43;;;;;;;33.28;13.93;;;3.50;99.90;;;;;;5055725;28;20391;-75
2023/01/29 03:10:20;;;;;;;39.25;15.40;;;3.40;99.90;;;;;;5054501;28;20060;-74
2023/01/29 03:12:54;;;;;;;34.65;14.20;;;3.40;99.90;;;;;;5055335;28;20393;-74
2023/01/29 03:15:27;;;;;;;32.20;13.65;;;3.40;99.90;;;;;;5087871;28;20056;-73
2023/01/29 03:18:04;;;;;;;40.50;14.13;;;3.40;99.90;;;;;;5054359;28;20052;-74
2023/01/29 03:20:35;;;;;;;35.33;14.20;;;3.40;99.90;;;;;;5037916;28;20135;-74
2023/01/29 03:23:15;;;;;;;35.17;14.40;;;3.40;99.90;;;;;;5054892;28;20041;-73
2023/01/29 03:34:15;;;;;;;40.08;15.02;;;3.30;99.90;;;;;;5054013;28;20057;-74
2023/01/29 03:36:46;;;;;;;39.55;15.18;;;3.40;99.90;;;;;;5035813;28;20052;-73
2023/01/29 03:39:13;;;;;;;42.95;15.02;;;3.30;99.90;;;;;;5053375;28;20037;-75
2023/01/29 03:42:01;;;;;;;45.08;17.08;;;3.40;99.90;;;;;;5052850;28;20084;-74
2023/01/29 03:44:54;;;;;;;37.80;16.65;;;3.40;99.90;;;;;;5053947;28;20041;-74
2023/01/29 03:47:42;;;;;;;41.30;15.82;;;3.40;99.90;;;;;;5053831;28;20131;-74
2023/01/29 03:50:16;;;;;;;37.95;15.35;;;3.40;99.90;;;;;;5054324;28;20080;-73
2023/01/29 03:52:50;;;;;;;42.35;17.33;;;3.40;99.90;;;;;;5052545;28;20119;-74
2023/01/29 03:55:38;;;;;;;44.97;15.68;;;3.40;99.90;;;;;;5086418;28;20095;-75
2023/01/29 03:58:25;;;;;;;39.80;16.33;;;3.40;99.90;;;;;;5052446;28;20045;-74
2023/01/29 04:01:22;;;;;;;43.10;16.40;;;3.40;99.90;;;;;;5052342;28;20048;-75
2023/01/29 04:04:06;;;;;;;40.65;16.48;;;3.40;99.90;;;;;;5053299;28;20136;-73
2023/01/29 04:06:36;;;;;;;45.10;15.80;;;3.40;99.90;;;;;;5053591;28;20222;-74
2023/01/29 04:09:14;;;;;;;44.88;16.40;;;3.40;99.90;;;;;;5053372;28;20045;-74
2023/01/29 04:11:46;;;;;;;42.70;15.45;;;3.40;99.90;;;;;;5052217;28;20094;-75
2023/01/29 04:14:13;;;;;;;43.70;17.02;;;3.50;99.90;;;;;;5053424;28;20045;-74
2023/01/29 04:16:44;;;;;;;42.03;17.63;;;3.50;99.90;;;;;;5053599;28;20091;-73
2023/01/29 04:19:11;;;;;;;41.67;17.42;;;3.50;99.90;;;;;;5053477;28;20559;-73
2023/01/29 04:21:37;;;;;;;46.63;17.50;;;3.50;99.90;;;;;;5086074;28;20084;-74
2023/01/29 04:24:05;;;;;;;42.65;16.85;;;3.50;99.90;;;;;;5053039;28;20373;-75
2023/01/29 04:26:37;;;;;;;42.30;16.85;;;3.60;99.90;;;;;;5052677;28;20041;-74
2023/01/29 04:29:29;;;;;;;45.97;17.85;;;3.60;99.90;;;;;;5052811;28;20051;-73
2023/01/29 04:32:37;;;;;;;49.65;18.85;;;3.60;99.90;;;;;;5053456;28;20052;-75
2023/01/29 04:35:28;;;;;;;42.85;17.40;;;3.60;99.90;;;;;;5053381;28;20065;-75
2023/01/29 04:38:18;;;;;;;43.90;17.55;;;3.60;99.90;;;;;;5053598;28;20049;-74
2023/01/29 04:41:02;;;;;;;49.63;19.45;;;3.60;99.90;;;;;;5053724;28;20044;-74
2023/01/29 04:43:32;;;;;;;48.00;19.73;;;3.60;99.90;;;;;;5053506;28;20056;-74
2023/01/29 04:46:20;;;;;;;49.25;18.95;;;3.60;99.90;;;;;;5053384;28;20053;-74
2023/01/29 04:49:04;;;;;;;46.53;18.92;;;3.60;99.90;;;;;;5053459;28;20113;-74
2023/01/29 04:51:48;;;;;;;50.60;19.52;;;3.70;99.90;;;;;;5035476;28;20098;-74
2023/01/29 04:54:35;;;;;;;55.80;22.40;;;3.70;99.90;;;;;;5052286;28;20110;-73
2023/01/29 04:57:06;;;;;;;;;;;3.70;99.90;;;;;;5053440;28;20604;-76
2023/01/29 04:59:39;;;;;;;47.90;19.35;;;3.70;99.90;;;;;;5053051;28;19927;-73
2023/01/29 05:02:07;;;;;;;46.63;19.33;;;3.60;99.90;;;;;;5053551;28;20076;-75
2023/01/29 05:04:34;;;;;;;50.08;19.63;;;3.70;99.90;;;;;;5054348;28;20148;-74
2023/01/29 05:07:07;;;;;;;52.90;20.98;;;3.70;99.90;;;;;;5055841;28;20095;-74
2023/01/29 05:09:35;;;;;;;51.20;20.73;;;3.70;99.90;;;;;;5057622;28;20048;-74
2023/01/29 05:12:02;;;;;;;55.13;21.38;;;3.70;99.90;;;;;;5055517;28;20052;-74
2023/01/29 05:14:32;;;;;;;55.00;21.38;;;3.70;99.90;;;;;;5056394;28;20041;-74
2023/01/29 05:17:02;;;;;;;50.10;21.20;;;3.70;99.90;;;;;;5056699;28;20049;-74
2023/01/29 05:19:28;;;;;;;58.67;22.67;;;3.70;99.90;;;;;;5055616;28;20041;-75
2023/01/29 05:21:54;;;;;;;52.08;21.45;;;3.70;99.90;;;;;;5056108;28;20056;-75
2023/01/29 05:24:24;;;;;;;55.25;20.95;;;3.70;99.90;;;;;;5056599;28;20045;-74
2023/01/29 05:29:37;;;;;;;56.22;22.55;;;3.70;99.90;;;;;;5056797;28;20084;-75
2023/01/29 05:32:03;;;;;;;57.58;22.40;;;3.70;99.90;;;;;;5056230;28;20494;-74
2023/01/29 05:34:29;;;;;;;57.03;22.70;;;3.80;99.90;;;;;;5056445;28;20056;-75
2023/01/29 05:36:55;;;;;;;51.97;21.90;;;3.70;99.90;;;;;;5056727;28;20538;-75
2023/01/29 05:39:20;;;;;;;52.92;21.08;;;3.80;99.90;;;;;;5056724;28;20103;-74
2023/01/29 05:41:47;;;;;;;56.55;22.27;;;3.70;99.90;;;;;;5055070;28;20049;-76
2023/01/29 05:44:13;;;;;;;57.65;20.55;;;3.80;99.90;;;;;;5055850;28;20467;-76
2023/01/29 05:46:38;;;;;;;53.95;22.60;;;3.70;99.90;;;;;;5054952;28;20187;-75
2023/01/29 05:49:04;;;;;;;52.55;22.02;;;3.70;99.90;;;;;;5055961;28;20048;-78
2023/01/29 05:51:30;;;;;;;57.47;22.23;;;3.80;99.90;;;;;;5056116;28;20041;-74
2023/01/29 05:53:56;;;;;;;56.20;22.33;;;3.70;99.90;;;;;;5056051;28;20052;-73
2023/01/29 05:56:22;;;;;;;56.60;22.52;;;3.70;99.90;;;;;;5038099;28;20048;-74
2023/01/29 05:58:48;;;;;;;57.47;23.23;;;3.70;99.90;;;;;;5056842;28;20049;-75
2023/01/29 06:01:18;;;;;;;59.25;22.70;;;3.70;99.90;;;;;;5038143;28;20049;-74
2023/01/29 06:03:43;;;;;;;57.03;24.73;;;3.80;99.90;;;;;;5055987;28;20137;-74
2023/01/29 06:06:09;;;;;;;54.25;22.88;;;3.70;99.90;;;;;;5054624;28;20076;-75
2023/01/29 06:08:35;;;;;;;53.90;21.48;;;3.70;99.90;;;;;;5056154;28;20375;-74
2023/01/29 06:11:01;;;;;;;57.03;24.23;;;3.70;99.90;;;;;;5056663;28;20049;-74
2023/01/29 06:13:27;;;;;;;59.45;23.75;;;3.70;99.90;;;;;;5058710;28;20104;-73
2023/01/29 06:15:53;;;;;;;61.92;23.75;;;3.60;99.90;;;;;;5057398;28;20044;-74
2023/01/29 06:18:18;;;;;;;59.10;23.75;;;3.70;99.90;;;;;;5090273;28;20373;-74
2023/01/29 06:20:44;;;;;;;59.10;23.75;;;3.70;99.90;;;;;;5054452;28;20072;-74
2023/01/29 06:23:10;;;;;;;60.10;23.23;;;3.60;99.90;;;;;;5054408;28;20070;-74
2023/01/29 06:25:36;;;;;;;57.08;23.23;;;3.60;99.90;;;;;;5055306;28;20055;-74
2023/01/29 06:28:02;;;;;;;62.05;25.33;;;3.60;99.90;;;;;;5055058;28;20140;-75
2023/01/29 06:30:27;;;;;;;60.70;24.15;;;3.60;99.90;;;;;;5055651;28;20085;-74
2023/01/29 06:33:02;;;;;;;58.50;23.75;;;3.60;99.90;;;;;;5055180;28;20037;-73
2023/01/29 06:35:28;;;;;;;59.65;23.95;;;3.60;99.90;;;;;;5053791;28;20448;-74
2023/01/29 06:37:55;;;;;;;59.65;24.20;;;3.60;99.90;;;;;;5055212;28;20044;-74
2023/01/29 06:40:21;;;;;;;56.17;23.48;;;3.60;99.90;;;;;;5054252;28;20048;-77
2023/01/29 06:42:46;;;;;;;63.17;24.67;;;3.60;99.90;;;;;;5055385;28;20048;-75
2023/01/29 06:45:12;;;;;;;63.50;25.52;;;3.50;99.90;;;;;;5054875;28;20052;-74
2023/01/29 06:47:37;;;;;;;64.00;25.23;;;3.50;99.90;;;;;;5053728;28;20126;-73
2023/01/29 06:50:04;;;;;;;66.47;25.25;;;3.50;99.90;;;;;;5054527;28;20040;-74
2023/01/29 06:52:29;;;;;;;61.45;24.75;;;3.50;99.90;;;;;;5087311;28;20048;-73
2023/01/29 06:54:55;;;;;;;60.70;25.17;;;3.60;99.90;;;;;;5053693;28;20044;-73
2023/01/29 06:57:21;;;;;;;68.30;25.67;;;3.60;99.90;;;;;;5053691;28;20080;-76
2023/01/29 06:59:47;;;;;;;61.13;25.35;;;3.60;99.90;;;;;;5054731;28;20128;-74
2023/01/29 07:02:13;;;;;;;53.65;23.27;;;3.50;99.90;;;;;;5053763;28;20100;-75
2023/01/29 07:04:41;;;;;;;65.85;26.88;;;3.60;99.90;;;;;;5053617;28;20055;-75
2023/01/29 07:07:12;;;;;;;61.42;25.08;;;3.50;99.90;;;;;;5087773;28;20477;-72
2023/01/29 07:09:39;;;;;;;59.25;23.92;;;3.50;99.90;;;;;;5054603;28;20053;-73
2023/01/29 07:12:05;;;;;;;62.80;23.80;;;3.50;99.90;;;;;;5054347;28;20044;-73
2023/01/29 07:14:31;;;;;;;65.65;25.02;;;3.60;99.90;;;;;;5054268;28;20485;-75
2023/01/29 07:16:57;;;;;;;64.38;25.70;;;3.50;99.90;;;;;;5054775;28;20099;-74
2023/01/29 07:19:22;;;;;;;58.58;23.50;;;3.60;99.90;;;;;;5037413;28;20056;-74
2023/01/29 07:21:48;;;;;;;61.10;23.27;;;3.60;99.90;;;;;;5053611;28;20362;-75
2023/01/29 07:24:15;;;;;;;64.03;25.35;;;3.60;99.90;;;;;;5054203;28;20049;-74
2023/01/29 07:26:41;;;;;;;58.17;23.85;;;3.50;99.90;;;;;;5069245;28;20115;-73
2023/01/29 07:29:07;;;;;;;64.10;25.45;;;3.60;99.90;;;;;;5054451;28;20048;-74
2023/01/29 07:31:32;;;;;;;63.92;24.75;;;3.50;99.90;;;;;;5054514;28;20389;-74
2023/01/29 07:33:58;;;;;;;64.38;24.65;;;3.50;99.90;;;;;;5053126;28;20115;-74
2023/01/29 07:36:24;;;;;;;61.40;23.95;;;3.60;99.90;;;;;;5052416;28;20060;-75
2023/01/29 07:38:50;;;;;;;65.13;24.85;;;3.70;99.90;;;;;;5053866;28;20397;-72
2023/01/29 07:41:16;;;;;;;62.72;25.58;;;3.60;99.90;;;;;;5053887;28;20048;-74
2023/01/29 07:43:41;;;;;;;66.22;24.15;;;3.60;99.90;;;;;;5053869;28;20044;-74
2023/01/29 07:46:07;;;;;;;58.60;24.35;;;3.60;99.90;;;;;;5053857;28;20132;-75
2023/01/29 07:48:33;;;;;;;69.35;25.75;;;3.70;99.90;;;;;;5053710;28;20071;-75
2023/01/29 07:50:59;;;;;;;61.03;25.17;;;3.70;99.90;;;;;;5052511;28;20073;-74
2023/01/29 07:53:26;;;;;;;63.13;24.58;;;3.60;99.90;;;;;;5052473;28;20045;-75
2023/01/29 07:55:52;;;;;;;63.97;24.13;;;3.60;99.90;;;;;;5036372;28;20110;-76
2023/01/29 07:58:18;;;;;;;66.38;24.17;;;3.60;99.90;;;;;;5053625;28;20049;-78
2023/01/29 08:00:44;;;;;;;64.72;25.65;;;3.70;99.90;;;;;;5053497;28;20041;-75
2023/01/29 08:03:15;;;;;;;62.57;23.97;;;3.60;99.90;;;;;;5053750;28;20132;-75
2023/01/29 08:05:44;;;;;;;66.15;25.77;;;3.70;99.90;;;;;;5036328;28;20099;-76
2023/01/29 08:08:10;;;;;;;63.58;24.35;;;3.70;99.90;;;;;;5053509;28;20048;-74
2023/01/29 08:10:37;;;;;;;73.63;25.48;;;3.70;99.90;;;;;;5052265;28;20049;-74
2023/01/29 08:13:03;;;;;;;61.53;23.10;;;3.70;99.90;;;;;;5052367;28;20052;-76
2023/01/29 08:15:30;;;;;;;66.13;24.60;;;3.70;99.90;;;;;;5053105;28;20359;-74
2023/01/29 08:17:55;;;;;;;67.85;25.40;;;3.70;99.90;;;;;;5086213;28;20041;-75
2023/01/29 08:20:22;;;;;;;70.05;25.75;;;3.70;99.90;;;;;;5052418;28;20049;-75
2023/01/29 08:22:48;;;;;;;67.97;24.80;;;3.80;99.90;;;;;;5053588;28;20041;-74
2023/01/29 08:25:15;;;;;;;57.55;22.35;;;3.90;99.90;;;;;;5053689;28;20049;-74
2023/01/29 08:27:41;;;;;;;66.63;24.08;;;3.80;99.90;;;;;;5052764;28;20350;-75
2023/01/29 08:30:08;;;;;;;69.82;28.08;;;3.80;99.90;;;;;;5053776;28;20211;-74
2023/01/29 08:32:34;;;;;;;63.42;25.48;;;3.80;99.90;;;;;;5053111;28;20049;-76
2023/01/29 08:35:00;;;;;;;64.53;23.98;;;3.80;99.90;;;;;;5052070;28;20388;-77
2023/01/29 08:37:26;;;;;;;61.78;24.10;;;3.80;99.90;;;;;;5052987;28;20092;-74
2023/01/29 08:39:52;;;;;;;65.68;24.38;;;3.80;99.90;;;;;;5055898;28;20563;-75
2023/01/29 08:42:17;;;;;;;65.07;23.92;;;3.80;99.90;;;;;;5056909;28;20045;-75
2023/01/29 08:44:43;;;;;;;67.63;26.23;;;3.80;99.90;;;;;;5057107;28;20469;-75
2023/01/29 08:47:09;;;;;;;66.68;24.45;;;3.80;99.90;;;;;;5089811;28;20052;-77
2023/01/29 08:49:35;;;;;;;66.50;24.63;;;3.80;99.90;;;;;;5039550;28;20377;-75
2023/01/29 08:52:00;;;;;;;68.15;26.40;;;3.90;99.90;;;;;;5057016;28;20095;-75
2023/01/29 08:54:26;;;;;;;62.63;24.92;;;3.80;99.90;;;;;;5057066;28;20082;-76
2023/01/29 08:56:52;;;;;;;45.10;14.82;;;3.80;99.90;;;;;;5057359;28;20055;-75
2023/01/29 08:59:18;;;;;;;65.22;25.05;;;3.90;99.90;;;;;;5055896;28;20365;-77
2023/01/29 09:01:43;;;;;;;67.93;25.90;;;3.80;99.90;;;;;;5056710;28;20056;-75
2023/01/29 09:04:09;;;;;;;65.47;26.00;;;3.90;99.90;;;;;;5056760;28;20060;-76
2023/01/29 09:06:35;;;;;;;63.13;25.58;;;3.90;99.90;;;;;;5055320;28;20052;-74
2023/01/29 09:09:00;;;;;;;72.25;25.10;;;3.90;99.90;;;;;;5056345;28;20053;-74
2023/01/29 09:11:26;;;;;;;62.25;23.85;;;3.80;99.90;;;;;;5055161;28;20036;-77
2023/01/29 09:13:52;;;;;;;68.35;25.35;;;3.90;99.90;;;;;;5056222;28;20146;-78
2023/01/29 09:16:18;;;;;;;68.47;25.13;;;3.90;99.90;;;;;;5056492;28;20041;-78
2023/01/29 09:18:43;;;;;;;65.35;24.80;;;3.90;99.90;;;;;;5056424;28;20061;-77
2023/01/29 09:21:09;;;;;;;58.10;24.05;;;3.90;99.90;;;;;;5022896;28;20202;-76
2023/01/29 09:23:35;;;;;;;64.55;24.52;;;3.90;99.90;;;;;;5055495;28;20131;-76
2023/01/29 09:26:01;;;;;;;61.40;23.55;;;3.90;99.90;;;;;;5056800;28;20045;-77
2023/01/29 09:28:27;;;;;;;55.57;23.10;;;4.00;99.90;;;;;;5056876;28;20151;-75
2023/01/29 09:30:53;;;;;;;61.63;25.05;;;4.10;99.90;;;;;;5055063;28;20500;-75
2023/01/29 09:33:19;;;;;;;66.57;26.98;;;4.20;99.90;;;;;;5055140;28;20056;-77
2023/01/29 09:35:46;;;;;;;62.75;25.23;;;4.20;99.90;;;;;;5054662;28;20041;-75
2023/01/29 09:38:12;;;;;;;66.93;28.50;;;4.30;99.90;;;;;;5055656;28;20057;-75
2023/01/29 09:40:54;;;;;;;70.10;27.05;;;4.30;99.90;;;;;;5056142;28;20041;-76
2023/01/29 09:43:38;;;;;;;67.45;26.05;;;4.40;99.90;;;;;;5057491;28;20493;-75
2023/01/29 09:46:13;;;;;;;59.30;24.45;;;4.40;99.90;;;;;;5062577;28;20045;-76
2023/01/29 09:48:40;;;;;;;66.72;24.50;;;4.60;99.90;;;;;;5057282;28;20045;-75
2023/01/29 09:51:32;;;;;;;65.28;24.88;;;4.70;99.90;;;;;;5071410;28;20041;-75
2023/01/29 09:54:10;;;;;;;60.38;24.52;;;4.70;99.90;;;;;;5056847;28;20052;-76
2023/01/29 09:56:36;;;;;;;63.00;25.58;;;4.80;99.90;;;;;;5057053;28;20045;-78
2023/01/29 09:59:01;;;;;;;67.18;25.23;;;4.70;99.90;;;;;;5055689;28;20068;-76
2023/01/29 10:01:54;;;;;;;64.15;25.65;;;4.80;99.90;;;;;;5055149;28;20040;-75
2023/01/29 10:04:59;;;;;;;57.50;22.65;;;4.80;99.90;;;;;;5055315;28;20109;-75
2023/01/29 10:07:44;;;;;;;62.67;25.52;;;4.80;99.90;;;;;;5052943;28;20056;-77
2023/01/29 10:10:13;;;;;;;69.50;26.63;;;4.80;99.90;;;;;;5055473;28;20045;-77
2023/01/29 10:12:59;;;;;;;68.80;26.42;;;4.70;99.90;;;;;;5055986;28;20485;-77
2023/01/29 10:15:44;;;;;;;67.95;27.20;;;4.80;99.90;;;;;;5055820;28;20136;-75
2023/01/29 10:18:22;;;;;;;63.70;25.75;;;4.80;99.90;;;;;;5054924;28;20041;-76
2023/01/29 10:21:03;;;;;;;67.03;27.13;;;4.80;99.90;;;;;;5055104;28;20056;-78
2023/01/29 10:23:37;;;;;;;66.88;24.33;;;4.80;99.90;;;;;;5056113;28;20053;-75
2023/01/29 10:26:03;;;;;;;70.43;27.65;;;4.80;99.90;;;;;;5087941;28;20497;-76
2023/01/29 10:28:45;;;;;;;62.67;25.15;;;4.90;99.90;;;;;;5055128;28;20134;-77
2023/01/29 10:31:35;;;;;;;66.90;26.48;;;4.90;99.90;;;;;;5055577;28;20048;-75
2023/01/29 10:34:15;;;;;;;66.00;25.45;;;4.90;99.90;;;;;;5055395;28;20045;-76
2023/01/29 10:36:46;;;;;;;65.90;26.85;;;4.90;99.90;;;;;;5037114;28;20062;-75
2023/01/29 10:39:23;;;;;;;74.20;28.45;;;4.90;99.90;;;;;;5055026;28;20057;-76
2023/01/29 10:42:00;;;;;;;70.38;26.52;;;4.90;99.90;;;;;;5055270;28;20045;-77
2023/01/29 10:44:39;;;;;;;69.03;29.00;;;4.90;99.90;;;;;;5053854;28;20056;-76
2023/01/29 10:47:15;;;;;;;71.78;27.98;;;4.90;99.90;;;;;;5055529;28;20283;-75
2023/01/29 10:49:46;;;;;;;73.53;27.52;;;4.90;99.90;;;;;;5055040;28;20041;-75
2023/01/29 10:52:21;;;;;;;73.10;27.25;;;4.90;99.90;;;;;;5055252;28;20056;-77
2023/01/29 10:55:06;;;;;;;74.07;26.25;;;5.00;99.90;;;;;;5055339;28;20056;-77
2023/01/29 10:57:47;;;;;;;70.82;27.17;;;5.00;99.90;;;;;;5056182;28;20044;-75
2023/01/29 11:00:48;;;;;;;71.93;28.05;;;5.10;99.90;;;;;;5054663;28;20076;-75
2023/01/29 11:03:25;;;;;;;71.07;26.70;;;5.20;99.90;;;;;;5039977;28;20505;-75
2023/01/29 11:06:12;;;;;;;69.18;25.52;;;5.20;99.90;;;;;;5054441;28;20133;-75
2023/01/29 11:08:45;;;;;;;65.15;24.77;;;5.20;99.90;;;;;;5036957;28;20131;-76
2023/01/29 11:11:12;;;;;;;62.17;23.13;;;5.20;99.90;;;;;;5054201;28;20051;-75
2023/01/29 11:13:53;;;;;;;68.10;26.20;;;5.20;99.90;;;;;;5054097;28;20087;-75
2023/01/29 11:16:19;;;;;;;64.95;25.85;;;5.20;99.90;;;;;;5037267;28;20055;-78
2023/01/29 11:18:51;;;;;;;63.80;23.67;;;5.20;99.90;;;;;;5054552;28;20124;-76
2023/01/29 11:21:16;;;;;;;70.00;25.33;;;5.20;99.90;;;;;;5054624;28;20497;-76
2023/01/29 11:23:42;;;;;;;65.07;25.40;;;5.30;99.90;;;;;;5053584;28;20087;-74
2023/01/29 11:26:11;;;;;;;60.83;22.67;;;5.30;99.90;;;;;;5053496;28;20084;-75
2023/01/29 11:28:42;;;;;;;64.95;26.35;;;5.30;99.90;;;;;;5055910;28;20135;-75
2023/01/29 11:31:27;;;;;;;71.22;26.50;;;5.40;99.90;;;;;;5059130;28;20049;-73
2023/01/29 11:34:12;;;;;;;71.60;27.08;;;5.40;99.90;;;;;;5060448;28;20048;-75
2023/01/29 11:36:38;;;;;;;69.93;25.38;;;5.40;99.90;;;;;;5059064;28;20091;-76
2023/01/29 11:39:10;;;;;;;67.80;25.55;;;5.40;99.90;;;;;;5073618;28;20048;-75
2023/01/29 11:41:47;;;;;;;68.20;26.20;;;5.30;99.90;;;;;;5038835;28;20053;-76
2023/01/29 11:44:26;;;;;;;64.95;25.08;;;5.30;99.90;;;;;;5054430;28;20128;-76
2023/01/29 11:46:52;;;;;;;72.05;25.75;;;5.40;99.90;;;;;;5053263;28;20052;-77
2023/01/29 11:49:30;;;;;;;72.10;26.58;;;5.40;99.90;;;;;;5054883;28;20049;-76
2023/01/29 11:51:58;;;;;;;70.22;25.95;;;5.40;99.90;;;;;;5054685;28;20393;-75
2023/01/29 11:54:30;;;;;;;71.13;25.95;;;5.30;99.90;;;;;;5053712;28;20386;-75
2023/01/29 11:56:57;;;;;;;69.15;25.80;;;5.50;99.90;;;;;;5055270;28;20057;-75
2023/01/29 11:59:23;;;;;;;75.30;28.75;;;5.40;99.90;;;;;;5037905;28;20056;-74
2023/01/29 12:01:48;;;;;;;71.55;25.60;;;5.50;99.90;;;;;;5056588;28;20045;-76
2023/01/29 12:04:19;;;;;;;71.47;27.17;;;5.50;99.90;;;;;;5057901;28;20049;-77
2023/01/29 12:06:48;;;;;;;71.75;27.00;;;5.50;99.90;;;;;;5057871;28;20394;-76
2023/01/29 12:09:18;;;;;;;75.25;28.52;;;5.50;99.90;;;;;;5052838;28;20045;-74
2023/01/29 12:11:44;;;;;;;69.50;25.65;;;5.40;99.90;;;;;;5054077;28;20051;-77
2023/01/29 12:14:32;;;;;;;74.60;27.08;;;5.40;99.90;;;;;;5053424;28;20086;-75
2023/01/29 12:17:17;;;;;;;67.05;26.55;;;5.30;99.90;;;;;;5052528;28;20045;-77
2023/01/29 12:19:58;;;;;;;70.03;24.30;;;5.30;99.90;;;;;;5052503;28;20049;-75
2023/01/29 12:22:33;;;;;;;71.10;25.60;;;5.40;99.90;;;;;;5052236;28;20049;-77
2023/01/29 12:25:42;;;;;;;67.00;25.20;;;5.30;99.90;;;;;;5053332;28;20040;-75
2023/01/29 12:28:33;;;;;;;76.22;27.55;;;5.20;99.90;;;;;;5053680;28;20029;-74
2023/01/29 12:31:18;;;;;;;69.80;26.90;;;5.20;99.90;;;;;;5035271;28;20051;-74
2023/01/29 12:34:22;;;;;;;71.32;24.00;;;5.30;99.90;;;;;;5053447;28;20076;-74
2023/01/29 12:37:20;;;;;;;69.15;27.15;;;5.30;99.90;;;;;;5051666;28;20110;-76
2023/01/29 12:39:48;;;;;;;74.90;26.67;;;5.30;99.90;;;;;;5003863;28;20124;-75
2023/01/29 12:42:21;;;;;;;70.63;28.55;;;5.30;99.90;;;;;;5035406;28;20053;-75
2023/01/29 12:45:05;;;;;;;73.03;26.75;;;5.30;99.90;;;;;;5052884;28;20053;-76
2023/01/29 12:47:47;;;;;;;73.60;26.30;;;5.30;99.90;;;;;;5053989;28;20144;-74
2023/01/29 12:50:20;;;;;;;74.57;25.05;;;5.30;99.90;;;;;;5053036;28;20040;-75
2023/01/29 12:52:51;;;;;;;68.30;25.25;;;5.40;99.90;;;;;;5085729;28;20041;-78
2023/01/29 12:55:23;;;;;;;69.82;26.50;;;5.30;99.90;;;;;;5053424;28;20052;-76
2023/01/29 12:58:00;;;;;;;72.07;26.70;;;5.30;99.90;;;;;;5051750;28;20461;-75
2023/01/29 13:00:30;;;;;;;70.95;24.17;;;5.20;99.90;;;;;;5085453;28;20068;-76
2023/01/29 13:03:12;;;;;;;68.60;23.77;;;5.20;99.90;;;;;;5053547;28;20047;-76
2023/01/29 13:05:43;;;;;;;74.88;24.30;;;5.20;99.90;;;;;;5069335;28;20401;-75
2023/01/29 13:08:44;;;;;;;75.82;25.50;;;5.10;99.90;;;;;;5052685;28;20052;-75
2023/01/29 13:11:21;;;;;;;74.78;26.40;;;5.10;99.90;;;;;;5053117;28;20041;-75
2023/01/29 13:13:55;;;;;;;74.30;27.92;;;5.10;99.90;;;;;;5035546;28;20057;-75
2023/01/29 13:16:26;;;;;;;75.78;26.80;;;5.00;99.90;;;;;;5085411;28;20144;-75
2023/01/29 13:19:03;;;;;;;79.90;26.33;;;4.90;99.90;;;;;;5053190;28;20122;-75
2023/01/29 13:21:39;;;;;;;79.03;28.33;;;4.90;99.90;;;;;;5052334;28;20474;-75
2023/01/29 13:24:18;;;;;;;70.75;26.35;;;4.80;99.90;;;;;;5051756;28;20040;-76
2023/01/29 13:26:45;;;;;;;77.07;26.95;;;4.90;99.90;;;;;;5055624;28;20060;-76
2023/01/29 13:29:37;;;;;;;75.32;26.45;;;4.70;99.90;;;;;;5056102;28;20059;-75
2023/01/29 13:32:04;;;;;;;85.18;28.98;;;4.70;99.90;;;;;;5051798;28;20097;-74
2023/01/29 13:35:01;;;;;;;76.25;25.00;;;4.60;99.90;;;;;;5055893;28;20473;-75
2023/01/29 13:37:34;;;;;;;82.03;27.15;;;4.60;99.90;;;;;;5054121;28;20049;-75